Time;durP1;ratioP1;P1;durP2;ratioP2;P2;SDS_P1;SDS_P2;PMS_P1;PMS_P2;Temp;Humidity;BMP_temperature;BMP_pressure;BME280_temperature;BME280_humidity;BME280_pressure;Samples;Min_cycle;Max_cycle;Signal;HPM_P1;HPM_P2
2023/04/25 00:02:24;;;;;;;6.68;2.47;;;;;;;6.99;85.50;101167.69;5090984;28;20032;-75
2023/04/25 00:04:50;;;;;;;4.22;2.10;;;;;;;6.98;85.49;101163.34;5089677;28;20081;-75
2023/04/25 00:07:16;;;;;;;8.15;2.35;;;;;;;6.98;85.34;101161.59;5088975;28;20043;-75
2023/04/25 00:09:42;;;;;;;3.85;2.10;;;;;;;6.98;85.57;101169.41;5091838;28;20421;-75
2023/04/25 00:12:07;;;;;;;8.13;2.15;;;;;;;6.99;85.82;101168.53;5087139;28;20036;-75
2023/04/25 00:14:33;;;;;;;9.35;2.63;;;;;;;6.98;85.67;101168.56;5090310;28;20094;-75
2023/04/25 00:17:00;;;;;;;7.00;1.95;;;;;;;6.99;85.94;101176.34;5083933;28;20040;-75
2023/04/25 00:19:28;;;;;;;3.80;2.00;;;;;;;7.00;86.10;101169.38;5088401;28;20094;-75
2023/04/25 00:21:56;;;;;;;3.97;2.00;;;;;;;7.00;86.01;101172.00;5085090;28;20035;-75
2023/04/25 00:24:21;;;;;;;4.82;1.83;;;;;;;7.01;86.10;101171.13;5091667;28;20232;-75
2023/04/25 00:26:47;;;;;;;4.75;1.90;;;;;;;7.00;85.96;101169.38;5088749;28;20417;-75
2023/04/25 00:29:12;;;;;;;3.97;1.67;;;;;;;7.00;86.11;101174.59;5087185;28;20051;-75
2023/04/25 00:31:38;;;;;;;4.95;1.63;;;;;;;7.00;86.28;101167.63;5079363;28;20080;-75
2023/04/25 00:34:03;;;;;;;4.55;1.73;;;;;;;7.00;86.37;101172.00;5090605;28;20052;-75
2023/04/25 00:36:29;;;;;;;7.80;1.80;;;;;;;6.99;86.33;101167.69;5082516;28;20063;-75
2023/04/25 00:38:55;;;;;;;3.17;1.30;;;;;;;6.98;85.94;101161.59;5082409;28;20255;-75
2023/04/25 00:41:21;;;;;;;4.68;1.60;;;;;;;6.98;86.03;101163.34;5083511;28;20186;-75
2023/04/25 00:43:48;;;;;;;5.78;1.60;;;;;;;6.98;86.20;101171.16;5091898;28;20046;-75
2023/04/25 00:46:13;;;;;;;3.75;1.52;;;;;;;6.96;86.00;101167.75;5091444;28;20042;-75
2023/04/25 00:48:39;;;;;;;4.07;1.52;;;;;;;6.96;86.18;101175.56;5079403;28;20127;-75
2023/04/25 00:51:04;;;;;;;1.95;1.23;;;;;;;6.95;86.30;101179.91;5084901;28;20047;-75
2023/04/25 00:53:31;;;;;;;3.60;1.63;;;;;;;6.93;86.23;101186.91;5091525;28;20295;-75
2023/04/25 00:55:57;;;;;;;2.45;1.50;;;;;;;6.94;86.18;101192.94;5085477;28;20084;-76
2023/04/25 00:58:23;;;;;;;1.85;1.30;;;;;;;6.93;86.32;101181.69;5090049;28;20039;-75
2023/04/25 01:04:10;;;;;;;3.80;1.60;;;;;;;6.92;86.47;101193.81;5032079;22;20056;-74
2023/04/25 01:06:36;;;;;;;2.65;1.35;;;;;;;6.92;86.54;101193.81;5049345;28;20040;-74
2023/04/25 01:09:01;;;;;;;2.83;1.60;;;;;;;6.92;86.27;101201.63;5044343;28;20052;-74
2023/04/25 01:11:27;;;;;;;3.25;1.50;;;;;;;6.91;86.58;101194.75;5034626;28;21129;-74
2023/04/25 01:13:52;;;;;;;3.25;1.58;;;;;;;6.91;86.39;101191.25;5042601;28;20285;-74
2023/04/25 01:16:18;;;;;;;1.77;1.38;;;;;;;6.91;86.44;101196.47;5046233;28;20246;-74
2023/04/25 01:18:46;;;;;;;3.08;1.58;;;;;;;6.91;86.59;101192.13;5049384;28;20037;-74
2023/04/25 01:21:15;;;;;;;3.20;1.35;;;;;;;6.91;86.61;101199.94;5046274;28;20156;-74
2023/04/25 01:23:40;;;;;;;;;;;;;;;6.91;86.67;101196.47;5043360;28;20272;-74
2023/04/25 01:26:08;;;;;;;2.03;1.25;;;;;;;6.90;86.85;101199.97;5044834;28;19946;-74
2023/04/25 01:28:34;;;;;;;1.88;1.50;;;;;;;6.91;86.65;101201.66;5049477;28;20100;-74
2023/04/25 01:30:59;;;;;;;2.75;1.30;;;;;;;6.88;86.68;101204.34;5044801;28;20658;-74
2023/04/25 01:33:25;;;;;;;2.65;1.65;;;;;;;6.87;85.83;101206.06;5046715;28;20099;-74
2023/04/25 01:35:51;;;;;;;4.63;2.53;;;;;;;6.87;86.18;101207.81;5047884;28;20096;-74
2023/04/25 01:38:16;;;;;;;3.72;1.67;;;;;;;6.86;86.14;101203.53;5046905;28;20040;-74
2023/04/25 01:40:44;;;;;;;2.25;1.77;;;;;;;6.83;85.37;101206.19;5045670;28;20036;-74
2023/04/25 01:43:11;;;;;;;7.57;1.83;;;;;;;6.81;85.83;101211.41;5048171;28;20049;-74
2023/04/25 01:45:40;;;;;;;3.75;1.92;;;;;;;6.81;85.69;101214.00;5044114;28;20045;-74
2023/04/25 01:48:09;;;;;;;3.17;1.88;;;;;;;6.80;85.86;101209.69;5042200;28;20108;-74
2023/04/25 01:50:35;;;;;;;2.97;1.80;;;;;;;6.80;85.96;101214.03;5044469;28;20111;-74
2023/04/25 01:53:01;;;;;;;2.00;1.60;;;;;;;6.79;86.28;101214.94;5043926;28;20357;-74
2023/04/25 01:55:27;;;;;;;2.90;1.73;;;;;;;6.78;86.06;101214.06;5044556;28;20104;-74
2023/04/25 01:57:52;;;;;;;3.72;1.30;;;;;;;6.78;85.92;101211.47;5045773;28;20056;-74
2023/04/25 02:00:18;;;;;;;4.57;1.58;;;;;;;6.79;86.24;101218.41;5042972;28;20364;-74
2023/04/25 02:02:43;;;;;;;2.60;1.35;;;;;;;6.78;86.47;101221.88;5045584;28;20063;-74
2023/04/25 02:05:09;;;;;;;3.28;1.50;;;;;;;6.78;86.36;101215.81;5064175;28;20355;-74
2023/04/25 02:07:34;;;;;;;2.72;1.30;;;;;;;6.77;86.58;101219.28;5064785;28;20033;-74
2023/04/25 02:10:00;;;;;;;1.50;1.40;;;;;;;6.76;86.35;101223.66;5061933;28;20045;-74
2023/04/25 02:12:26;;;;;;;1.92;1.40;;;;;;;6.76;86.45;101215.00;5066820;28;20041;-74
2023/04/25 02:14:51;;;;;;;1.80;1.33;;;;;;;6.76;86.65;101223.66;5059001;28;20048;-74
2023/04/25 02:17:17;;;;;;;2.50;1.23;;;;;;;6.77;86.55;101221.91;5064983;28;20262;-74
2023/04/25 02:19:43;;;;;;;2.28;1.42;;;;;;;6.76;86.69;101228.00;5067861;28;20040;-74
2023/04/25 02:22:08;;;;;;;1.88;1.30;;;;;;;6.76;86.78;101222.81;5066020;28;20127;-74
2023/04/25 02:24:34;;;;;;;2.17;1.50;;;;;;;6.75;86.67;101234.09;5068607;28;20047;-74
2023/04/25 02:27:00;;;;;;;10.00;2.05;;;;;;;6.68;84.19;101234.22;5066838;28;20071;-74
2023/04/25 02:29:25;;;;;;;6.45;2.20;;;;;;;6.63;83.15;101238.63;5065029;28;20391;-74
2023/04/25 02:31:51;;;;;;;5.63;1.55;;;;;;;6.56;82.78;101231.81;5067580;28;20328;-74
2023/04/25 02:34:16;;;;;;;3.15;1.50;;;;;;;6.52;83.49;101225.81;5066584;28;20224;-74
2023/04/25 02:36:41;;;;;;;2.75;1.38;;;;;;;6.52;83.92;101227.56;5071631;28;20028;-74
2023/04/25 02:39:07;;;;;;;3.53;1.38;;;;;;;6.53;84.05;101229.25;5065480;28;20052;-74
2023/04/25 02:41:32;;;;;;;1.40;1.30;;;;;;;6.54;84.40;101236.19;5063442;28;20352;-76
2023/04/25 02:43:57;;;;;;;1.38;1.10;;;;;;;6.54;84.56;101231.84;5069440;28;20106;-76
2023/04/25 02:46:23;;;;;;;3.75;1.60;;;;;;;6.56;84.74;101229.22;5062501;28;20032;-76
2023/04/25 02:48:48;;;;;;;3.08;1.40;;;;;;;6.58;85.04;101229.19;5062641;28;20037;-76
2023/04/25 02:51:16;;;;;;;5.07;1.40;;;;;;;6.59;85.34;101223.97;5066344;28;20047;-76
2023/04/25 02:53:41;;;;;;;1.45;1.35;;;;;;;6.60;85.59;101225.66;5071661;28;20044;-76
2023/04/25 02:56:06;;;;;;;3.15;1.20;;;;;;;6.61;85.64;101227.41;5061902;28;20057;-76
2023/04/25 02:58:32;;;;;;;3.63;1.20;;;;;;;6.61;85.94;101226.56;5071364;28;20032;-76
2023/04/25 03:00:57;;;;;;;2.20;1.23;;;;;;;6.61;85.96;101226.56;5067407;28;20052;-76
2023/04/25 03:03:23;;;;;;;1.75;1.10;;;;;;;6.61;86.15;101230.00;5061301;28;20037;-76
2023/04/25 03:05:50;;;;;;;2.80;1.13;;;;;;;6.62;86.34;101236.94;5070865;28;20052;-76
2023/04/25 03:08:16;;;;;;;2.22;1.30;;;;;;;6.63;86.39;101230.81;5062762;28;20104;-76
2023/04/25 03:10:41;;;;;;;3.63;1.50;;;;;;;6.63;86.43;101232.59;5069805;28;20040;-76
2023/04/25 03:13:07;;;;;;;6.25;1.50;;;;;;;6.62;86.50;101226.53;5071971;28;20420;-76
2023/04/25 03:15:32;;;;;;;3.70;1.33;;;;;;;6.64;86.62;101223.88;5062771;28;20040;-76
2023/04/25 03:17:58;;;;;;;4.72;1.70;;;;;;;6.63;86.60;101230.81;5067298;28;20033;-76
2023/04/25 03:20:23;;;;;;;3.60;1.23;;;;;;;6.64;86.66;101226.47;5062219;28;20057;-76
2023/04/25 03:22:49;;;;;;;3.33;1.40;;;;;;;6.64;86.69;101232.56;5071247;28;20040;-76
2023/04/25 03:25:14;;;;;;;1.98;1.10;;;;;;;6.64;86.85;101240.38;5067260;28;20269;-76
2023/04/25 03:27:40;;;;;;;2.95;1.42;;;;;;;6.65;86.88;101238.63;5063861;28;20037;-76
2023/04/25 03:30:06;;;;;;;1.38;1.10;;;;;;;6.65;86.95;101233.41;5062588;28;20039;-76
2023/04/25 03:32:31;;;;;;;6.40;1.35;;;;;;;6.62;85.19;101236.06;5068683;28;20036;-76
2023/04/25 03:34:57;;;;;;;3.25;1.20;;;;;;;6.61;85.84;101229.16;5061274;28;20032;-76
2023/04/25 03:37:22;;;;;;;5.38;1.27;;;;;;;6.61;86.11;101232.59;5070011;28;20367;-76
2023/04/25 03:39:48;;;;;;;1.35;1.02;;;;;;;6.61;86.28;101237.81;5065410;28;20044;-76
2023/04/25 03:42:13;;;;;;;2.60;1.20;;;;;;;6.61;86.47;101240.41;5070629;28;20387;-76
2023/04/25 03:44:38;;;;;;;2.22;1.20;;;;;;;6.62;86.58;101244.75;5060818;28;20257;-76
2023/04/25 03:47:04;;;;;;;2.45;1.40;;;;;;;6.62;86.63;101249.94;5067152;28;20374;-76
2023/04/25 03:49:29;;;;;;;2.58;1.40;;;;;;;6.64;86.74;101255.09;5061182;28;20037;-76
2023/04/25 03:51:55;;;;;;;1.10;0.95;;;;;;;6.64;86.99;101249.91;5061860;28;20037;-76
2023/04/25 03:54:20;;;;;;;3.92;1.38;;;;;;;6.64;87.06;101250.78;5064361;28;20036;-76
2023/04/25 03:56:46;;;;;;;4.25;1.38;;;;;;;6.63;86.59;101248.19;5070535;28;20037;-76
2023/04/25 03:59:11;;;;;;;3.20;1.23;;;;;;;6.63;86.79;101256.84;5063303;28;20243;-76
2023/04/25 04:01:37;;;;;;;2.60;1.50;;;;;;;6.62;86.69;101260.38;5061097;28;20040;-76
2023/04/25 04:04:02;;;;;;;3.78;1.17;;;;;;;6.62;86.71;101257.75;5065506;28;20072;-76
2023/04/25 04:06:28;;;;;;;3.42;1.17;;;;;;;6.62;86.40;101264.69;5064930;28;20036;-76
2023/04/25 04:08:53;;;;;;;7.13;1.40;;;;;;;6.59;85.60;101265.59;5061103;28;20028;-76
2023/04/25 04:11:20;;;;;;;4.85;1.33;;;;;;;6.58;85.58;101270.84;5064520;28;20062;-76
2023/04/25 04:13:45;;;;;;;3.67;1.52;;;;;;;6.59;85.73;101275.16;5060797;28;20063;-76
2023/04/25 04:16:11;;;;;;;4.38;1.48;;;;;;;6.57;86.04;101277.78;5069671;28;20052;-76
2023/04/25 04:18:36;;;;;;;4.80;1.33;;;;;;;6.58;86.17;101274.28;5066528;28;20054;-76
2023/04/25 04:21:02;;;;;;;1.60;0.98;;;;;;;6.60;86.35;101274.25;5059993;28;20262;-76
2023/04/25 04:23:28;;;;;;;2.45;0.90;;;;;;;6.60;86.64;101269.06;5064077;28;20530;-76
2023/04/25 04:25:54;;;;;;;0.95;0.90;;;;;;;6.61;86.83;101271.63;5068750;28;20062;-76
2023/04/25 04:28:20;;;;;;;2.75;1.05;;;;;;;6.62;86.72;101272.50;5064765;28;20116;-76
2023/04/25 04:30:45;;;;;;;3.80;1.20;;;;;;;6.62;86.90;101277.69;5064266;28;20032;-76
2023/04/25 04:33:11;;;;;;;6.18;1.60;;;;;;;6.61;86.37;101276.84;5064964;28;20032;-76
2023/04/25 04:35:37;;;;;;;4.15;2.08;;;;;;;6.62;86.64;101272.50;5063317;28;20051;-76
2023/04/25 04:38:03;;;;;;;2.38;1.17;;;;;;;6.61;86.75;101271.63;5066983;28;20231;-76
2023/04/25 04:40:30;;;;;;;1.42;0.75;;;;;;;6.62;86.89;101280.28;5063353;28;20025;-76
2023/04/25 04:42:57;;;;;;;2.20;1.10;;;;;;;6.64;87.12;101281.13;5062334;28;20115;-76
2023/04/25 04:45:23;;;;;;;1.33;0.88;;;;;;;6.64;87.09;101275.91;5063647;28;20250;-76
2023/04/25 04:47:49;;;;;;;4.05;1.23;;;;;;;6.64;87.09;101291.53;5070661;28;20036;-76
2023/04/25 04:50:16;;;;;;;3.65;1.05;;;;;;;6.64;87.35;101292.41;5067984;28;20258;-76
2023/04/25 04:52:41;;;;;;;1.23;0.90;;;;;;;6.64;87.21;101291.53;5069400;28;20050;-76
2023/04/25 04:55:07;;;;;;;2.50;1.35;;;;;;;6.62;86.77;101294.19;5067984;28;20342;-76
2023/04/25 04:57:34;;;;;;;4.03;1.05;;;;;;;6.60;86.24;101303.75;5060545;28;20061;-76
2023/04/25 05:00:00;;;;;;;8.55;2.03;;;;;;;6.56;84.38;101304.69;5072929;28;20374;-76
2023/04/25 05:02:26;;;;;;;8.07;1.60;;;;;;;6.49;81.63;101311.75;5077675;28;20118;-77
2023/04/25 05:04:52;;;;;;;7.65;1.50;;;;;;;6.46;80.68;101313.56;5066131;28;20139;-76
2023/04/25 05:07:18;;;;;;;11.18;2.67;;;;;;;6.42;80.67;101312.75;5070093;28;20044;-76
2023/04/25 05:09:44;;;;;;;8.13;1.90;;;;;;;6.39;81.15;101325.78;5071928;28;20048;-76
2023/04/25 05:12:09;;;;;;;6.95;1.98;;;;;;;6.37;82.07;101327.56;5068559;28;20036;-76
2023/04/25 05:14:35;;;;;;;3.92;1.55;;;;;;;6.36;82.47;101330.19;5067190;28;20044;-76
2023/04/25 05:17:00;;;;;;;4.75;1.48;;;;;;;6.35;83.21;101334.53;5068970;28;20031;-76
2023/04/25 05:19:26;;;;;;;3.97;1.27;;;;;;;6.34;83.67;101333.63;5076851;28;20427;-76
2023/04/25 05:21:52;;;;;;;6.55;1.50;;;;;;;6.34;84.05;101340.59;5076903;28;20764;-76
2023/04/25 05:24:17;;;;;;;7.05;1.75;;;;;;;6.36;84.16;101348.38;5076828;28;20036;-76
2023/04/25 05:26:42;;;;;;;5.18;1.63;;;;;;;6.38;84.38;101352.66;5077051;28;20323;-76
2023/04/25 05:29:08;;;;;;;3.38;1.60;;;;;;;6.41;84.92;101354.38;5064046;28;20258;-76
2023/04/25 05:31:33;;;;;;;6.05;1.52;;;;;;;6.41;84.72;101359.59;5069951;28;20123;-76
2023/04/25 05:33:59;;;;;;;13.18;1.85;;;;;;;6.37;83.51;101363.09;5075318;28;20043;-76
2023/04/25 05:36:25;;;;;;;7.28;1.92;;;;;;;6.36;83.90;101367.44;5076189;28;20327;-76
2023/04/25 05:38:51;;;;;;;15.57;2.08;;;;;;;6.30;82.83;101377.94;5072557;28;20289;-76
2023/04/25 05:41:16;;;;;;;4.03;1.30;;;;;;;6.26;82.21;101368.47;5075842;28;20043;-76
2023/04/25 05:43:46;;;;;;;4.65;1.30;;;;;;;6.24;82.25;101375.41;5072941;28;20208;-76
2023/04/25 05:46:12;;;;;;;4.38;1.15;;;;;;;6.23;81.86;101390.19;5068538;28;20044;-76
2023/04/25 05:48:37;;;;;;;3.60;1.10;;;;;;;6.23;81.71;101390.19;5066478;28;20043;-76
2023/04/25 05:51:03;;;;;;;5.25;1.17;;;;;;;6.21;81.69;101384.13;5075277;28;20112;-76
2023/04/25 05:53:28;;;;;;;3.38;0.95;;;;;;;6.23;81.93;101384.13;5067717;28;20070;-76
2023/04/25 05:55:54;;;;;;;8.00;1.58;;;;;;;6.21;80.77;101391.09;5075105;28;20051;-76
2023/04/25 05:58:20;;;;;;;4.28;1.20;;;;;;;6.22;81.44;101396.28;5082371;28;20035;-76
2023/04/25 06:00:46;;;;;;;5.43;1.20;;;;;;;6.22;80.95;101404.09;5073463;28;20388;-76
2023/04/25 06:03:13;;;;;;;9.15;1.13;;;;;;;6.20;80.09;101404.97;5068501;28;20040;-76
2023/04/25 06:05:38;;;;;;;4.93;1.10;;;;;;;6.19;79.69;101416.25;5089225;28;20120;-77
2023/04/25 06:08:04;;;;;;;3.00;1.15;;;;;;;6.12;78.28;101411.13;5078728;28;20069;-76
2023/04/25 06:10:29;;;;;;;3.17;0.77;;;;;;;6.11;78.72;101413.75;5079878;28;20039;-76
2023/04/25 06:12:55;;;;;;;4.32;1.05;;;;;;;6.08;79.12;101408.59;5075610;28;20108;-77
2023/04/25 06:15:20;;;;;;;1.45;0.60;;;;;;;6.07;79.12;101422.47;5064510;28;20066;-77
2023/04/25 06:17:45;;;;;;;3.30;1.13;;;;;;;5.98;79.66;101419.97;5078573;28;20028;-77
2023/04/25 06:20:11;;;;;;;1.55;1.00;;;;;;;5.90;80.63;101409.66;5080404;28;20042;-77
2023/04/25 06:22:36;;;;;;;2.85;1.27;;;;;;;5.88;80.93;101417.47;5078042;28;20204;-77
2023/04/25 06:25:04;;;;;;;1.95;0.93;;;;;;;5.87;81.57;101417.47;5078488;28;20040;-77
2023/04/25 06:27:29;;;;;;;3.10;0.90;;;;;;;5.88;81.89;101427.00;5080030;28;20286;-77
2023/04/25 06:29:55;;;;;;;1.85;0.80;;;;;;;5.90;82.27;101428.69;5078214;28;20040;-76
2023/04/25 06:32:20;;;;;;;3.90;1.00;;;;;;;5.91;82.63;101425.25;5082839;28;20052;-76
2023/04/25 06:34:46;;;;;;;5.75;0.90;;;;;;;5.90;82.72;101426.09;5077456;28;20323;-77
2023/04/25 06:37:11;;;;;;;1.73;0.77;;;;;;;5.89;82.33;101431.31;5077919;28;20347;-77
2023/04/25 06:39:36;;;;;;;3.28;0.90;;;;;;;5.90;82.58;101438.25;5070724;28;20047;-77
2023/04/25 06:42:02;;;;;;;3.67;1.20;;;;;;;5.89;82.57;101436.50;5076473;28;20036;-77
2023/04/25 06:44:29;;;;;;;3.10;0.98;;;;;;;5.92;83.02;101436.50;5077744;28;20020;-77
2023/04/25 06:46:54;;;;;;;2.85;0.98;;;;;;;5.97;83.36;101439.94;5077245;28;20327;-77
2023/04/25 06:49:20;;;;;;;2.17;1.13;;;;;;;6.02;83.74;101451.16;5074076;28;20056;-77
2023/04/25 06:51:45;;;;;;;1.60;0.90;;;;;;;6.07;83.99;101448.47;5075777;28;20099;-77
2023/04/25 06:54:10;;;;;;;2.50;1.00;;;;;;;6.12;84.07;101457.09;5077895;28;20063;-77
2023/04/25 06:56:36;;;;;;;1.77;1.00;;;;;;;6.15;84.02;101447.50;5078690;28;20029;-77
2023/04/25 06:59:01;;;;;;;2.38;1.02;;;;;;;6.20;84.07;101449.19;5079096;28;20047;-77
2023/04/25 07:01:27;;;;;;;1.48;0.90;;;;;;;6.24;84.21;101451.72;5071451;28;20020;-77
2023/04/25 07:03:52;;;;;;;0.65;0.60;;;;;;;6.28;84.56;101455.16;5075932;28;20067;-77
2023/04/25 07:06:17;;;;;;;0.75;0.75;;;;;;;6.32;84.67;101449.88;5076845;28;20411;-77
2023/04/25 07:08:43;;;;;;;2.33;0.82;;;;;;;6.37;84.90;101455.03;5076702;28;20063;-77
2023/04/25 07:11:08;;;;;;;1.13;0.80;;;;;;;6.41;84.94;101450.66;5077433;28;20331;-77
2023/04/25 07:13:34;;;;;;;3.63;1.10;;;;;;;6.45;84.38;101460.13;5078745;28;20047;-77
2023/04/25 07:15:59;;;;;;;2.55;1.10;;;;;;;6.48;84.84;101457.50;5074700;28;20123;-77
2023/04/25 07:18:25;;;;;;;3.22;1.23;;;;;;;6.51;84.77;101460.03;5067369;28;20041;-77
2023/04/25 07:20:50;;;;;;;3.45;1.30;;;;;;;6.54;85.01;101463.44;5065446;28;20421;-77
2023/04/25 07:23:15;;;;;;;2.05;1.10;;;;;;;6.56;85.07;101466.03;5071467;28;20044;-77
2023/04/25 07:25:41;;;;;;;3.50;1.38;;;;;;;6.62;84.65;101465.09;5075959;28;20405;-77
2023/04/25 07:28:06;;;;;;;4.35;1.15;;;;;;;6.60;81.99;101470.31;5070763;28;20056;-77
2023/04/25 07:30:31;;;;;;;4.20;0.98;;;;;;;6.62;81.19;101475.50;5062871;28;20126;-77
2023/04/25 07:32:57;;;;;;;6.03;1.10;;;;;;;6.66;81.23;101469.38;5068876;28;20040;-77
2023/04/25 07:35:22;;;;;;;4.05;1.02;;;;;;;6.68;81.34;101476.28;5078275;28;20115;-77
2023/04/25 07:37:48;;;;;;;1.52;0.90;;;;;;;6.71;81.60;101480.56;5072069;28;20047;-77
2023/04/25 07:40:15;;;;;;;2.47;0.98;;;;;;;6.73;82.26;101474.47;5068258;28;20055;-77
2023/04/25 07:42:40;;;;;;;5.03;1.15;;;;;;;6.77;82.60;101477.00;5049565;28;20041;-77
2023/04/25 07:45:06;;;;;;;8.75;1.10;;;;;;;6.78;82.13;101477.00;5066489;28;20040;-77
2023/04/25 07:47:32;;;;;;;7.63;1.50;;;;;;;6.82;81.92;101477.81;5072028;28;20040;-77
2023/04/25 07:49:57;;;;;;;4.18;1.20;;;;;;;6.82;78.00;101473.50;5064521;28;20032;-77
2023/04/25 07:52:23;;;;;;;5.72;0.75;;;;;;;6.89;78.87;101480.31;5076095;28;20036;-77
2023/04/25 07:54:49;;;;;;;7.80;1.08;;;;;;;6.94;75.77;101480.25;5067420;28;20044;-77
2023/04/25 07:57:14;;;;;;;2.95;0.88;;;;;;;7.01;75.08;101484.47;5071416;28;20025;-77
2023/04/25 07:59:40;;;;;;;8.88;1.27;;;;;;;7.05;73.37;101478.31;5072779;28;20051;-77
2023/04/25 08:02:05;;;;;;;3.78;1.08;;;;;;;7.14;73.56;101486.88;5074200;28;20043;-78
2023/04/25 08:04:31;;;;;;;7.18;1.70;;;;;;;7.17;71.38;101499.84;5076490;28;20059;-77
2023/04/25 08:06:56;;;;;;;8.82;1.60;;;;;;;7.16;70.88;101503.34;5069502;28;20057;-77
2023/04/25 08:09:22;;;;;;;5.25;0.85;;;;;;;7.14;70.34;101505.13;5071331;28;20377;-77
2023/04/25 08:11:48;;;;;;;4.97;0.77;;;;;;;7.10;71.15;101505.16;5070666;28;20408;-77
2023/04/25 08:14:13;;;;;;;3.30;0.93;;;;;;;7.07;70.32;101510.41;5077971;28;20044;-77
2023/04/25 08:16:39;;;;;;;2.22;0.68;;;;;;;7.03;70.35;101520.91;5068812;28;20223;-77
2023/04/25 08:19:05;;;;;;;6.47;1.30;;;;;;;7.00;70.01;101531.38;5064890;28;20339;-77
2023/04/25 08:21:31;;;;;;;4.47;1.00;;;;;;;6.98;70.79;101531.38;5066194;28;20103;-77
2023/04/25 08:23:57;;;;;;;8.35;1.33;;;;;;;6.95;70.81;101531.44;5068119;28;20059;-78
2023/04/25 08:26:23;;;;;;;4.70;0.93;;;;;;;6.95;71.77;101541.88;5077849;28;20040;-77
2023/04/25 08:28:49;;;;;;;10.48;1.00;;;;;;;6.92;68.89;101547.09;5069332;28;20145;-77
2023/04/25 08:31:14;;;;;;;6.30;1.08;;;;;;;6.92;68.71;101547.09;5072330;28;20043;-77
2023/04/25 08:33:40;;;;;;;6.43;1.02;;;;;;;6.98;69.64;101551.38;5073066;28;20045;-77
2023/04/25 08:36:05;;;;;;;8.07;1.27;;;;;;;7.05;70.31;101553.84;5069550;28;20046;-77
2023/04/25 08:38:31;;;;;;;4.00;0.73;;;;;;;7.14;70.13;101560.69;5066688;28;20044;-77
2023/04/25 08:40:57;;;;;;;9.48;1.33;;;;;;;7.19;69.74;101553.66;5066484;28;20082;-77
2023/04/25 08:43:23;;;;;;;5.93;0.80;;;;;;;7.25;69.49;101558.75;5069518;28;20378;-77
2023/04/25 08:45:48;;;;;;;6.85;1.23;;;;;;;7.26;70.12;101568.31;5064321;28;20036;-77
2023/04/25 08:48:16;;;;;;;11.52;1.85;;;;;;;7.26;71.60;101570.06;5066176;28;20424;-77
2023/04/25 08:50:52;;;;;;;8.52;1.60;;;;;;;7.24;71.77;101571.81;5067650;28;20048;-77
2023/04/25 08:53:25;;;;;;;8.55;1.35;;;;;;;7.22;72.28;101586.59;5063612;28;20441;-77
2023/04/25 08:55:53;;;;;;;5.18;1.40;;;;;;;7.20;73.14;101584.03;5067867;28;20036;-77
2023/04/25 08:58:20;;;;;;;5.63;1.20;;;;;;;7.21;73.09;101588.34;5070195;28;20040;-77
2023/04/25 09:00:49;;;;;;;6.05;1.00;;;;;;;7.22;72.80;101591.81;5071350;28;20368;-77
2023/04/25 09:03:16;;;;;;;5.10;0.80;;;;;;;7.22;71.48;101591.81;5065259;28;20346;-77
2023/04/25 09:05:42;;;;;;;3.60;0.82;;;;;;;7.18;69.66;101598.81;5063712;28;20216;-77
2023/04/25 09:08:07;;;;;;;3.83;0.90;;;;;;;7.20;69.45;101594.44;5063638;28;20039;-77
2023/04/25 09:10:34;;;;;;;2.33;0.82;;;;;;;7.23;70.32;101599.63;5067924;28;20337;-77
2023/04/25 09:13:08;;;;;;;9.23;1.08;;;;;;;7.30;70.88;101605.63;5074440;28;20051;-77
2023/04/25 09:15:47;;;;;;;4.45;0.88;;;;;;;7.36;68.15;101605.50;5067939;28;20055;-77
2023/04/25 09:18:12;;;;;;;4.07;0.85;;;;;;;7.37;66.13;101620.28;5064483;28;20329;-77
2023/04/25 09:20:44;;;;;;;2.42;0.63;;;;;;;7.36;63.83;101613.31;5064407;28;20053;-77
2023/04/25 09:23:09;;;;;;;3.03;0.70;;;;;;;7.42;65.04;101621.06;5063293;28;20389;-77
2023/04/25 09:25:38;;;;;;;6.38;1.02;;;;;;;7.46;66.28;101622.75;5068425;28;20250;-77
2023/04/25 09:28:05;;;;;;;5.07;0.93;;;;;;;7.53;66.61;101613.09;5067613;28;20044;-77
2023/04/25 09:30:34;;;;;;;2.00;0.80;;;;;;;7.58;68.02;101626.03;5069600;28;20056;-78
2023/04/25 09:33:10;;;;;;;1.65;0.70;;;;;;;7.58;66.92;101636.47;5070732;28;20308;-77
2023/04/25 09:35:42;;;;;;;4.63;0.80;;;;;;;7.57;65.72;101633.00;5072990;28;20017;-77
2023/04/25 09:38:18;;;;;;;3.10;0.93;;;;;;;7.61;66.86;101637.28;5073080;28;20098;-77
2023/04/25 09:40:45;;;;;;;5.10;0.88;;;;;;;7.66;66.54;101635.47;5065239;28;20044;-77
2023/04/25 09:43:19;;;;;;;2.58;0.60;;;;;;;7.75;67.52;101633.56;5064460;28;20378;-77
2023/04/25 09:45:45;;;;;;;5.00;1.15;;;;;;;7.81;65.53;101642.16;5068122;28;20032;-77
2023/04/25 09:48:12;;;;;;;5.40;1.10;;;;;;;7.86;65.79;101636.91;5065538;28;20354;-77
2023/04/25 09:50:40;;;;;;;7.20;0.85;;;;;;;7.91;62.89;101645.47;5070328;28;20048;-77
2023/04/25 09:53:06;;;;;;;2.60;0.90;;;;;;;7.96;62.26;101645.41;5069140;28;20059;-77
2023/04/25 09:55:33;;;;;;;7.40;1.10;;;;;;;8.02;64.00;101640.97;5069042;28;20044;-77
2023/04/25 09:58:06;;;;;;;4.65;1.10;;;;;;;8.08;63.73;101643.47;5067537;28;20049;-77
2023/04/25 10:00:32;;;;;;;6.13;0.73;;;;;;;8.09;64.91;101644.31;5068034;28;20035;-77
2023/04/25 10:03:05;;;;;;;10.30;1.33;;;;;;;8.11;66.10;101652.97;5067377;28;20041;-77
2023/04/25 10:05:35;;;;;;;3.80;0.93;;;;;;;8.12;65.93;101648.63;5068364;28;20040;-77
2023/04/25 10:08:03;;;;;;;4.63;1.05;;;;;;;8.10;66.54;101661.69;5069184;28;20037;-77
2023/04/25 10:10:32;;;;;;;3.63;1.00;;;;;;;8.04;66.55;101662.66;5066840;28;20040;-77
2023/04/25 10:12:58;;;;;;;7.15;1.20;;;;;;;7.99;67.01;101669.69;5068817;28;20262;-77
2023/04/25 10:15:25;;;;;;;4.78;0.82;;;;;;;7.96;67.68;101663.66;5072124;28;20390;-77
2023/04/25 10:17:50;;;;;;;6.22;1.15;;;;;;;7.91;68.01;101668.09;5063831;28;20343;-77
2023/04/25 10:20:16;;;;;;;4.55;1.05;;;;;;;7.89;68.46;101670.72;5063948;28;20039;-75
2023/04/25 10:22:44;;;;;;;4.70;1.00;;;;;;;7.93;69.28;101674.16;5068806;28;20106;-75
2023/04/25 10:25:10;;;;;;;1.92;0.82;;;;;;;8.00;70.93;101678.38;5060107;28;20317;-75
2023/04/25 10:27:35;;;;;;;7.35;1.08;;;;;;;7.98;69.02;101695.81;5065167;28;20037;-75
2023/04/25 10:30:08;;;;;;;5.60;1.67;;;;;;;7.95;69.43;101688.03;5067205;28;20545;-77
2023/04/25 10:32:35;;;;;;;3.90;0.88;;;;;;;7.86;70.32;101689.06;5065244;28;20098;-78
2023/04/25 10:35:30;;;;;;;2.95;1.05;;;;;;;7.79;70.87;101688.28;5070183;28;20066;-76
2023/04/25 10:38:00;;;;;;;5.68;1.17;;;;;;;7.72;71.02;101685.78;5061945;28;20068;-78
2023/04/25 10:40:26;;;;;;;5.72;1.00;;;;;;;7.65;71.69;101685.88;5066987;28;20040;-78
2023/04/25 10:42:54;;;;;;;6.97;1.20;;;;;;;7.66;72.48;101681.53;5063092;28;20414;-76
2023/04/25 10:45:20;;;;;;;7.68;1.23;;;;;;;7.74;73.16;101674.44;5067106;28;20112;-76
2023/04/25 10:47:45;;;;;;;2.88;0.82;;;;;;;7.82;72.10;101687.34;5065364;28;20263;-75
2023/04/25 10:50:11;;;;;;;6.63;1.15;;;;;;;7.91;69.66;101692.41;5066895;28;20334;-75
2023/04/25 10:52:39;;;;;;;8.02;1.17;;;;;;;8.01;68.24;101680.13;5066886;28;20048;-76
2023/04/25 10:55:05;;;;;;;9.90;1.27;;;;;;;8.04;67.11;101678.31;5067473;28;20347;-76
2023/04/25 10:57:43;;;;;;;4.80;0.75;;;;;;;8.08;69.41;101679.97;5066458;28;20047;-76
2023/04/25 11:00:13;;;;;;;7.55;1.55;;;;;;;8.11;67.16;101689.50;5080149;28;20032;-76
2023/04/25 11:02:52;;;;;;;4.95;0.70;;;;;;;8.14;67.72;101686.00;5065411;28;20040;-76
2023/04/25 11:05:39;;;;;;;4.45;0.90;;;;;;;8.15;67.47;101680.75;5076628;28;20071;-75
2023/04/25 11:08:11;;;;;;;5.72;0.77;;;;;;;8.13;66.59;101703.41;5073301;28;20396;-75
2023/04/25 11:10:36;;;;;;;8.27;1.45;;;;;;;8.08;64.77;101689.56;5076648;28;20098;-75
2023/04/25 11:13:02;;;;;;;5.40;1.02;;;;;;;8.06;64.23;101692.19;5072928;28;20048;-75
2023/04/25 11:15:28;;;;;;;6.80;1.10;;;;;;;8.05;64.13;101692.22;5069620;28;20035;-78
2023/04/25 11:17:54;;;;;;;2.13;1.00;;;;;;;8.05;64.08;101690.44;5073004;28;20052;-78
2023/04/25 11:20:20;;;;;;;5.20;1.33;;;;;;;8.05;64.52;101695.66;5072566;28;20036;-76
2023/04/25 11:22:47;;;;;;;4.30;1.10;;;;;;;8.02;64.06;101687.03;5070320;28;20107;-76
2023/04/25 11:25:14;;;;;;;4.72;1.10;;;;;;;8.01;65.82;101703.59;5067873;28;20087;-76
2023/04/25 11:27:51;;;;;;;3.85;1.13;;;;;;;8.04;65.16;101698.31;5074359;28;20064;-76
2023/04/25 11:30:17;;;;;;;5.60;1.17;;;;;;;8.10;65.78;101699.97;5075611;28;20040;-76
2023/04/25 11:32:43;;;;;;;4.03;0.80;;;;;;;8.17;65.02;101699.84;5066806;28;20043;-76
2023/04/25 11:35:09;;;;;;;3.45;1.00;;;;;;;8.26;63.32;101704.91;5081895;28;20036;-76